sensor_id;sensor_type;location;lat;lon;timestamp;P1;durP1;ratioP1;P2;durP2;ratioP2
1446;SDS011;717;51.522;7.266;2022-11-04T00:01:41;0.63;;;0.57;;
1446;SDS011;717;51.522;7.266;2022-11-04T00:04:10;0.55;;;0.30;;
1446;SDS011;717;51.522;7.266;2022-11-04T00:06:38;0.85;;;0.47;;
1446;SDS011;717;51.522;7.266;2022-11-04T00:09:07;1.45;;;0.50;;
1446;SDS011;717;51.522;7.266;2022-11-04T00:11:35;0.57;;;0.55;;
1446;SDS011;717;51.522;7.266;2022-11-04T00:14:20;0.57;;;0.40;;
1446;SDS011;717;51.522;7.266;2022-11-04T00:16:47;0.68;;;0.57;;
1446;SDS011;717;51.522;7.266;2022-11-04T00:19:40;0.65;;;0.50;;
1446;SDS011;717;51.522;7.266;2022-11-04T00:22:24;1.20;;;0.57;;
1446;SDS011;717;51.522;7.266;2022-11-04T00:25:10;1.00;;;0.73;;
1446;SDS011;717;51.522;7.266;2022-11-04T00:28:00;0.73;;;0.60;;
1446;SDS011;717;51.522;7.266;2022-11-04T00:30:46;1.63;;;0.80;;
1446;SDS011;717;51.522;7.266;2022-11-04T00:33:12;0.75;;;0.60;;
1446;SDS011;717;51.522;7.266;2022-11-04T00:35:50;1.15;;;0.50;;
1446;SDS011;717;51.522;7.266;2022-11-04T00:38:18;0.95;;;0.70;;
1446;SDS011;717;51.522;7.266;2022-11-04T00:40:46;0.50;;;0.50;;
1446;SDS011;717;51.522;7.266;2022-11-04T00:43:13;0.63;;;0.52;;
1446;SDS011;717;51.522;7.266;2022-11-04T00:45:40;0.88;;;0.73;;
1446;SDS011;717;51.522;7.266;2022-11-04T00:48:07;0.82;;;0.60;;
1446;SDS011;717;51.522;7.266;2022-11-04T00:50:34;0.82;;;0.73;;
1446;SDS011;717;51.522;7.266;2022-11-04T00:53:01;0.80;;;0.77;;
1446;SDS011;717;51.522;7.266;2022-11-04T00:55:28;1.83;;;0.80;;
1446;SDS011;717;51.522;7.266;2022-11-04T00:57:57;0.73;;;0.50;;
1446;SDS011;717;51.522;7.266;2022-11-04T01:00:24;1.15;;;0.70;;
1446;SDS011;717;51.522;7.266;2022-11-04T01:02:51;1.50;;;0.70;;
1446;SDS011;717;51.522;7.266;2022-11-04T01:05:18;0.90;;;0.80;;
1446;SDS011;717;51.522;7.266;2022-11-04T01:07:45;0.80;;;0.65;;
1446;SDS011;717;51.522;7.266;2022-11-04T01:10:11;1.17;;;0.50;;
1446;SDS011;717;51.522;7.266;2022-11-04T01:12:38;1.10;;;0.80;;
1446;SDS011;717;51.522;7.266;2022-11-04T01:15:07;0.90;;;0.55;;
1446;SDS011;717;51.522;7.266;2022-11-04T01:17:34;0.90;;;0.60;;
1446;SDS011;717;51.522;7.266;2022-11-04T01:20:01;0.80;;;0.70;;
1446;SDS011;717;51.522;7.266;2022-11-04T01:22:28;1.48;;;0.80;;
1446;SDS011;717;51.522;7.266;2022-11-04T01:24:54;1.05;;;0.68;;
1446;SDS011;717;51.522;7.266;2022-11-04T01:27:21;0.85;;;0.70;;
1446;SDS011;717;51.522;7.266;2022-11-04T01:29:48;1.45;;;1.05;;
1446;SDS011;717;51.522;7.266;2022-11-04T01:32:16;0.98;;;0.80;;
1446;SDS011;717;51.522;7.266;2022-11-04T01:34:42;1.10;;;1.10;;
1446;SDS011;717;51.522;7.266;2022-11-04T01:37:11;1.20;;;1.10;;
1446;SDS011;717;51.522;7.266;2022-11-04T01:39:37;1.30;;;1.20;;
1446;SDS011;717;51.522;7.266;2022-11-04T01:42:04;1.38;;;1.27;;
1446;SDS011;717;51.522;7.266;2022-11-04T01:47:22;1.73;;;1.20;;
1446;SDS011;717;51.522;7.266;2022-11-04T01:49:53;1.52;;;1.35;;
1446;SDS011;717;51.522;7.266;2022-11-04T01:52:24;1.67;;;1.58;;
1446;SDS011;717;51.522;7.266;2022-11-04T01:54:56;1.80;;;1.20;;
1446;SDS011;717;51.522;7.266;2022-11-04T01:57:28;1.60;;;1.23;;
1446;SDS011;717;51.522;7.266;2022-11-04T02:00:00;1.67;;;1.50;;
1446;SDS011;717;51.522;7.266;2022-11-04T02:02:31;1.42;;;1.33;;
1446;SDS011;717;51.522;7.266;2022-11-04T02:04:58;1.75;;;1.65;;
1446;SDS011;717;51.522;7.266;2022-11-04T02:07:25;1.77;;;1.38;;
1446;SDS011;717;51.522;7.266;2022-11-04T02:09:53;1.80;;;1.70;;
1446;SDS011;717;51.522;7.266;2022-11-04T02:12:20;1.38;;;1.27;;
1446;SDS011;717;51.522;7.266;2022-11-04T02:15:07;1.65;;;1.50;;
1446;SDS011;717;51.522;7.266;2022-11-04T02:17:39;2.22;;;1.40;;
1446;SDS011;717;51.522;7.266;2022-11-04T02:23:19;2.35;;;1.70;;
1446;SDS011;717;51.522;7.266;2022-11-04T02:26:32;2.05;;;1.70;;
1446;SDS011;717;51.522;7.266;2022-11-04T02:32:07;1.75;;;1.60;;
1446;SDS011;717;51.522;7.266;2022-11-04T02:34:41;1.98;;;1.60;;
1446;SDS011;717;51.522;7.266;2022-11-04T02:37:19;4.00;;;1.67;;
1446;SDS011;717;51.522;7.266;2022-11-04T02:40:00;1.60;;;1.15;;
1446;SDS011;717;51.522;7.266;2022-11-04T02:42:36;2.05;;;1.35;;
1446;SDS011;717;51.522;7.266;2022-11-04T02:45:11;2.05;;;1.27;;
1446;SDS011;717;51.522;7.266;2022-11-04T02:47:42;2.55;;;1.33;;
1446;SDS011;717;51.522;7.266;2022-11-04T02:50:11;3.58;;;1.42;;
1446;SDS011;717;51.522;7.266;2022-11-04T02:52:44;3.08;;;1.35;;
1446;SDS011;717;51.522;7.266;2022-11-04T02:55:15;2.95;;;1.52;;
1446;SDS011;717;51.522;7.266;2022-11-04T02:57:46;1.33;;;1.10;;
1446;SDS011;717;51.522;7.266;2022-11-04T03:00:17;4.60;;;1.45;;
1446;SDS011;717;51.522;7.266;2022-11-04T03:02:47;1.70;;;1.20;;
1446;SDS011;717;51.522;7.266;2022-11-04T03:05:18;3.13;;;1.10;;
1446;SDS011;717;51.522;7.266;2022-11-04T03:07:49;2.60;;;1.30;;
1446;SDS011;717;51.522;7.266;2022-11-04T03:10:20;2.97;;;1.05;;
1446;SDS011;717;51.522;7.266;2022-11-04T03:12:50;3.67;;;1.10;;
1446;SDS011;717;51.522;7.266;2022-11-04T03:15:23;3.60;;;1.10;;
1446;SDS011;717;51.522;7.266;2022-11-04T03:17:55;5.22;;;1.20;;
1446;SDS011;717;51.522;7.266;2022-11-04T03:20:28;2.53;;;1.00;;
1446;SDS011;717;51.522;7.266;2022-11-04T03:22:56;2.58;;;1.10;;
1446;SDS011;717;51.522;7.266;2022-11-04T03:25:25;2.53;;;0.90;;
1446;SDS011;717;51.522;7.266;2022-11-04T03:27:56;4.00;;;1.02;;
1446;SDS011;717;51.522;7.266;2022-11-04T03:30:30;4.03;;;1.10;;
1446;SDS011;717;51.522;7.266;2022-11-04T03:33:04;2.15;;;0.90;;
1446;SDS011;717;51.522;7.266;2022-11-04T03:35:37;3.20;;;1.20;;
1446;SDS011;717;51.522;7.266;2022-11-04T03:38:04;2.13;;;0.90;;
1446;SDS011;717;51.522;7.266;2022-11-04T03:40:31;3.92;;;0.90;;
1446;SDS011;717;51.522;7.266;2022-11-04T03:42:58;3.53;;;0.80;;
1446;SDS011;717;51.522;7.266;2022-11-04T03:45:29;3.25;;;0.93;;
1446;SDS011;717;51.522;7.266;2022-11-04T03:47:56;2.38;;;0.80;;
1446;SDS011;717;51.522;7.266;2022-11-04T03:50:25;2.92;;;0.70;;
1446;SDS011;717;51.522;7.266;2022-11-04T03:52:53;2.83;;;0.77;;
1446;SDS011;717;51.522;7.266;2022-11-04T03:55:22;2.75;;;0.77;;
1446;SDS011;717;51.522;7.266;2022-11-04T03:57:56;2.22;;;0.77;;
1446;SDS011;717;51.522;7.266;2022-11-04T04:00:33;2.65;;;0.88;;
1446;SDS011;717;51.522;7.266;2022-11-04T04:03:05;1.95;;;0.70;;
1446;SDS011;717;51.522;7.266;2022-11-04T04:05:36;3.15;;;0.80;;
1446;SDS011;717;51.522;7.266;2022-11-04T04:08:13;2.70;;;0.85;;
1446;SDS011;717;51.522;7.266;2022-11-04T04:10:46;3.17;;;0.70;;
1446;SDS011;717;51.522;7.266;2022-11-04T04:13:22;4.00;;;1.10;;
1446;SDS011;717;51.522;7.266;2022-11-04T04:15:58;3.38;;;0.90;;
1446;SDS011;717;51.522;7.266;2022-11-04T04:18:29;2.22;;;0.80;;
1446;SDS011;717;51.522;7.266;2022-11-04T04:21:00;4.57;;;1.10;;
1446;SDS011;717;51.522;7.266;2022-11-04T04:23:31;5.18;;;0.98;;
1446;SDS011;717;51.522;7.266;2022-11-04T04:26:18;4.20;;;1.00;;
1446;SDS011;717;51.522;7.266;2022-11-04T04:29:04;3.45;;;0.70;;
1446;SDS011;717;51.522;7.266;2022-11-04T04:31:35;3.75;;;1.00;;
1446;SDS011;717;51.522;7.266;2022-11-04T04:34:15;4.15;;;0.90;;
1446;SDS011;717;51.522;7.266;2022-11-04T04:36:45;5.13;;;0.95;;
1446;SDS011;717;51.522;7.266;2022-11-04T04:39:17;5.15;;;0.80;;
1446;SDS011;717;51.522;7.266;2022-11-04T04:42:06;2.88;;;0.82;;
1446;SDS011;717;51.522;7.266;2022-11-04T04:44:51;3.58;;;0.80;;
1446;SDS011;717;51.522;7.266;2022-11-04T04:47:35;3.60;;;0.60;;
1446;SDS011;717;51.522;7.266;2022-11-04T04:50:05;3.88;;;0.90;;
1446;SDS011;717;51.522;7.266;2022-11-04T04:52:35;5.57;;;1.00;;
1446;SDS011;717;51.522;7.266;2022-11-04T04:55:05;4.45;;;0.90;;
1446;SDS011;717;51.522;7.266;2022-11-04T04:57:32;5.50;;;0.98;;
1446;SDS011;717;51.522;7.266;2022-11-04T04:59:59;2.60;;;0.90;;
1446;SDS011;717;51.522;7.266;2022-11-04T05:02:26;3.50;;;1.20;;
1446;SDS011;717;51.522;7.266;2022-11-04T05:04:54;4.55;;;1.00;;
1446;SDS011;717;51.522;7.266;2022-11-04T05:07:21;2.95;;;0.80;;
1446;SDS011;717;51.522;7.266;2022-11-04T05:09:48;4.63;;;1.10;;
1446;SDS011;717;51.522;7.266;2022-11-04T05:12:15;4.00;;;1.05;;
1446;SDS011;717;51.522;7.266;2022-11-04T05:14:45;1.98;;;1.00;;
1446;SDS011;717;51.522;7.266;2022-11-04T05:17:12;4.72;;;1.02;;
1446;SDS011;717;51.522;7.266;2022-11-04T05:19:39;3.20;;;1.00;;
1446;SDS011;717;51.522;7.266;2022-11-04T05:22:07;1.92;;;0.95;;
1446;SDS011;717;51.522;7.266;2022-11-04T05:26:59;3.65;;;0.98;;
1446;SDS011;717;51.522;7.266;2022-11-04T05:29:26;5.82;;;1.40;;
1446;SDS011;717;51.522;7.266;2022-11-04T05:31:52;3.88;;;1.00;;
1446;SDS011;717;51.522;7.266;2022-11-04T05:34:19;2.97;;;0.70;;
1446;SDS011;717;51.522;7.266;2022-11-04T05:36:46;4.68;;;0.82;;
1446;SDS011;717;51.522;7.266;2022-11-04T05:39:14;3.75;;;1.30;;
1446;SDS011;717;51.522;7.266;2022-11-04T05:41:41;4.55;;;1.00;;
1446;SDS011;717;51.522;7.266;2022-11-04T05:44:07;3.10;;;1.08;;
1446;SDS011;717;51.522;7.266;2022-11-04T05:46:35;1.90;;;1.10;;
1446;SDS011;717;51.522;7.266;2022-11-04T05:49:02;4.53;;;1.20;;
1446;SDS011;717;51.522;7.266;2022-11-04T05:51:29;3.70;;;1.38;;
1446;SDS011;717;51.522;7.266;2022-11-04T05:53:56;2.80;;;1.08;;
1446;SDS011;717;51.522;7.266;2022-11-04T05:56:24;6.40;;;1.00;;
1446;SDS011;717;51.522;7.266;2022-11-04T05:58:50;2.38;;;0.90;;
1446;SDS011;717;51.522;7.266;2022-11-04T06:01:25;5.55;;;1.00;;
1446;SDS011;717;51.522;7.266;2022-11-04T06:03:55;4.00;;;1.80;;
1446;SDS011;717;51.522;7.266;2022-11-04T06:06:23;4.93;;;1.05;;
1446;SDS011;717;51.522;7.266;2022-11-04T06:08:51;7.53;;;1.23;;
1446;SDS011;717;51.522;7.266;2022-11-04T06:11:18;5.28;;;1.13;;
1446;SDS011;717;51.522;7.266;2022-11-04T06:13:47;6.57;;;1.33;;
1446;SDS011;717;51.522;7.266;2022-11-04T06:16:14;4.38;;;1.02;;
1446;SDS011;717;51.522;7.266;2022-11-04T06:18:41;5.93;;;0.90;;
1446;SDS011;717;51.522;7.266;2022-11-04T06:21:09;3.88;;;1.05;;
1446;SDS011;717;51.522;7.266;2022-11-04T06:23:45;3.45;;;1.20;;
1446;SDS011;717;51.522;7.266;2022-11-04T06:26:12;4.55;;;0.85;;
1446;SDS011;717;51.522;7.266;2022-11-04T06:28:39;3.63;;;1.23;;
1446;SDS011;717;51.522;7.266;2022-11-04T06:31:08;3.53;;;0.80;;
1446;SDS011;717;51.522;7.266;2022-11-04T06:33:37;3.45;;;1.25;;
1446;SDS011;717;51.522;7.266;2022-11-04T06:36:04;6.07;;;0.90;;
1446;SDS011;717;51.522;7.266;2022-11-04T06:38:35;2.22;;;0.85;;
1446;SDS011;717;51.522;7.266;2022-11-04T06:41:02;3.05;;;0.90;;
1446;SDS011;717;51.522;7.266;2022-11-04T06:43:30;2.72;;;0.85;;
1446;SDS011;717;51.522;7.266;2022-11-04T06:45:57;3.20;;;0.90;;
1446;SDS011;717;51.522;7.266;2022-11-04T06:48:26;2.95;;;1.20;;
1446;SDS011;717;51.522;7.266;2022-11-04T06:53:20;4.30;;;0.88;;
1446;SDS011;717;51.522;7.266;2022-11-04T06:55:46;2.13;;;0.90;;
1446;SDS011;717;51.522;7.266;2022-11-04T06:58:12;3.38;;;0.80;;
1446;SDS011;717;51.522;7.266;2022-11-04T07:00:39;2.15;;;0.90;;
1446;SDS011;717;51.522;7.266;2022-11-04T07:03:07;3.22;;;0.95;;
1446;SDS011;717;51.522;7.266;2022-11-04T07:10:26;4.40;;;0.75;;
1446;SDS011;717;51.522;7.266;2022-11-04T07:12:53;4.30;;;1.00;;
1446;SDS011;717;51.522;7.266;2022-11-04T07:15:20;2.42;;;0.90;;
1446;SDS011;717;51.522;7.266;2022-11-04T07:17:46;3.40;;;1.08;;
1446;SDS011;717;51.522;7.266;2022-11-04T07:20:32;5.93;;;1.02;;
1446;SDS011;717;51.522;7.266;2022-11-04T07:23:17;3.45;;;0.95;;
1446;SDS011;717;51.522;7.266;2022-11-04T07:25:45;4.68;;;1.10;;
1446;SDS011;717;51.522;7.266;2022-11-04T07:28:11;6.97;;;1.52;;
1446;SDS011;717;51.522;7.266;2022-11-04T07:30:38;3.83;;;1.10;;
1446;SDS011;717;51.522;7.266;2022-11-04T07:33:05;6.97;;;1.42;;
1446;SDS011;717;51.522;7.266;2022-11-04T07:35:32;1.70;;;0.80;;
1446;SDS011;717;51.522;7.266;2022-11-04T07:37:59;5.28;;;2.58;;
1446;SDS011;717;51.522;7.266;2022-11-04T07:40:27;4.50;;;2.15;;
1446;SDS011;717;51.522;7.266;2022-11-04T07:42:56;2.00;;;1.10;;
1446;SDS011;717;51.522;7.266;2022-11-04T07:45:22;2.58;;;1.17;;
1446;SDS011;717;51.522;7.266;2022-11-04T07:47:49;5.05;;;1.58;;
1446;SDS011;717;51.522;7.266;2022-11-04T07:50:16;5.35;;;1.33;;
1446;SDS011;717;51.522;7.266;2022-11-04T07:52:43;3.85;;;1.23;;
1446;SDS011;717;51.522;7.266;2022-11-04T07:55:09;4.13;;;1.45;;
1446;SDS011;717;51.522;7.266;2022-11-04T07:57:38;2.70;;;1.05;;
1446;SDS011;717;51.522;7.266;2022-11-04T08:02:35;4.65;;;1.40;;
1446;SDS011;717;51.522;7.266;2022-11-04T08:07:28;2.55;;;1.10;;
1446;SDS011;717;51.522;7.266;2022-11-04T08:09:55;3.25;;;1.27;;
1446;SDS011;717;51.522;7.266;2022-11-04T08:12:22;2.78;;;1.00;;
1446;SDS011;717;51.522;7.266;2022-11-04T08:14:49;3.88;;;1.02;;
1446;SDS011;717;51.522;7.266;2022-11-04T08:17:16;4.88;;;1.10;;
1446;SDS011;717;51.522;7.266;2022-11-04T08:19:44;3.65;;;0.90;;
1446;SDS011;717;51.522;7.266;2022-11-04T08:22:10;4.68;;;1.30;;
1446;SDS011;717;51.522;7.266;2022-11-04T08:24:37;2.00;;;1.35;;
1446;SDS011;717;51.522;7.266;2022-11-04T08:29:29;4.18;;;1.10;;
1446;SDS011;717;51.522;7.266;2022-11-04T08:31:58;3.88;;;1.02;;
1446;SDS011;717;51.522;7.266;2022-11-04T08:34:25;3.08;;;1.23;;
1446;SDS011;717;51.522;7.266;2022-11-04T08:36:53;3.22;;;1.20;;
1446;SDS011;717;51.522;7.266;2022-11-04T08:39:21;4.57;;;1.17;;
1446;SDS011;717;51.522;7.266;2022-11-04T08:46:40;6.65;;;1.27;;
1446;SDS011;717;51.522;7.266;2022-11-04T08:49:08;5.32;;;1.90;;
1446;SDS011;717;51.522;7.266;2022-11-04T08:51:36;2.75;;;0.82;;
1446;SDS011;717;51.522;7.266;2022-11-04T08:54:06;2.65;;;1.17;;
1446;SDS011;717;51.522;7.266;2022-11-04T08:56:34;3.72;;;1.10;;
1446;SDS011;717;51.522;7.266;2022-11-04T08:59:01;2.45;;;0.80;;
1446;SDS011;717;51.522;7.266;2022-11-04T09:01:29;3.00;;;1.10;;
1446;SDS011;717;51.522;7.266;2022-11-04T09:06:26;3.47;;;1.02;;
1446;SDS011;717;51.522;7.266;2022-11-04T09:11:21;3.38;;;1.08;;
1446;SDS011;717;51.522;7.266;2022-11-04T09:13:48;4.25;;;1.10;;
1446;SDS011;717;51.522;7.266;2022-11-04T09:16:15;3.90;;;1.27;;
1446;SDS011;717;51.522;7.266;2022-11-04T09:18:41;5.10;;;1.23;;
1446;SDS011;717;51.522;7.266;2022-11-04T09:21:08;3.60;;;0.90;;
1446;SDS011;717;51.522;7.266;2022-11-04T09:23:36;2.88;;;1.10;;
1446;SDS011;717;51.522;7.266;2022-11-04T09:26:04;5.57;;;0.93;;
1446;SDS011;717;51.522;7.266;2022-11-04T09:28:33;2.05;;;0.90;;
1446;SDS011;717;51.522;7.266;2022-11-04T09:31:03;4.85;;;0.85;;
1446;SDS011;717;51.522;7.266;2022-11-04T09:33:31;5.15;;;1.00;;
1446;SDS011;717;51.522;7.266;2022-11-04T09:35:59;2.70;;;1.30;;
1446;SDS011;717;51.522;7.266;2022-11-04T09:38:33;3.40;;;1.20;;
1446;SDS011;717;51.522;7.266;2022-11-04T09:41:20;5.22;;;1.10;;
1446;SDS011;717;51.522;7.266;2022-11-04T09:44:12;3.28;;;1.13;;
1446;SDS011;717;51.522;7.266;2022-11-04T09:46:50;6.30;;;1.15;;
1446;SDS011;717;51.522;7.266;2022-11-04T09:49:20;4.22;;;1.00;;
1446;SDS011;717;51.522;7.266;2022-11-04T09:51:48;5.03;;;0.90;;
1446;SDS011;717;51.522;7.266;2022-11-04T09:54:17;3.20;;;0.85;;
1446;SDS011;717;51.522;7.266;2022-11-04T09:56:47;4.13;;;0.90;;
1446;SDS011;717;51.522;7.266;2022-11-04T09:59:18;3.95;;;1.05;;
1446;SDS011;717;51.522;7.266;2022-11-04T10:01:51;9.68;;;1.23;;
1446;SDS011;717;51.522;7.266;2022-11-04T10:04:47;4.88;;;1.08;;
1446;SDS011;717;51.522;7.266;2022-11-04T10:07:25;3.53;;;1.15;;
1446;SDS011;717;51.522;7.266;2022-11-04T10:10:08;3.78;;;1.10;;
1446;SDS011;717;51.522;7.266;2022-11-04T10:12:45;4.55;;;1.20;;
1446;SDS011;717;51.522;7.266;2022-11-04T10:18:41;2.47;;;1.00;;
1446;SDS011;717;51.522;7.266;2022-11-04T10:21:33;3.22;;;1.05;;
1446;SDS011;717;51.522;7.266;2022-11-04T10:24:06;5.28;;;1.30;;
1446;SDS011;717;51.522;7.266;2022-11-04T10:26:43;3.50;;;1.10;;
1446;SDS011;717;51.522;7.266;2022-11-04T10:29:13;4.07;;;1.25;;
1446;SDS011;717;51.522;7.266;2022-11-04T10:31:42;3.55;;;1.38;;
1446;SDS011;717;51.522;7.266;2022-11-04T10:34:14;6.10;;;1.23;;
1446;SDS011;717;51.522;7.266;2022-11-04T10:36:51;4.25;;;1.38;;
1446;SDS011;717;51.522;7.266;2022-11-04T10:39:22;3.28;;;1.00;;
1446;SDS011;717;51.522;7.266;2022-11-04T10:41:52;6.72;;;0.95;;
1446;SDS011;717;51.522;7.266;2022-11-04T10:44:19;3.10;;;0.80;;
1446;SDS011;717;51.522;7.266;2022-11-04T10:46:51;3.20;;;1.20;;
1446;SDS011;717;51.522;7.266;2022-11-04T10:49:32;4.25;;;1.05;;
1446;SDS011;717;51.522;7.266;2022-11-04T10:52:12;2.60;;;0.70;;
1446;SDS011;717;51.522;7.266;2022-11-04T10:54:40;8.55;;;0.80;;
1446;SDS011;717;51.522;7.266;2022-11-04T10:57:25;2.75;;;0.82;;
1446;SDS011;717;51.522;7.266;2022-11-04T10:59:53;2.65;;;1.08;;
1446;SDS011;717;51.522;7.266;2022-11-04T11:04:54;5.05;;;1.00;;
1446;SDS011;717;51.522;7.266;2022-11-04T11:07:40;2.55;;;0.85;;
1446;SDS011;717;51.522;7.266;2022-11-04T11:10:14;3.20;;;1.42;;
1446;SDS011;717;51.522;7.266;2022-11-04T11:12:45;4.38;;;0.93;;
1446;SDS011;717;51.522;7.266;2022-11-04T11:17:42;5.07;;;1.50;;
1446;SDS011;717;51.522;7.266;2022-11-04T11:20:17;5.00;;;0.95;;
1446;SDS011;717;51.522;7.266;2022-11-04T11:22:46;3.92;;;1.23;;
1446;SDS011;717;51.522;7.266;2022-11-04T11:25:22;5.82;;;0.80;;
1446;SDS011;717;51.522;7.266;2022-11-04T11:32:46;3.67;;;0.82;;
1446;SDS011;717;51.522;7.266;2022-11-04T11:35:18;3.88;;;0.98;;
1446;SDS011;717;51.522;7.266;2022-11-04T11:37:48;3.65;;;1.00;;
1446;SDS011;717;51.522;7.266;2022-11-04T11:40:25;2.83;;;1.10;;
1446;SDS011;717;51.522;7.266;2022-11-04T11:42:55;3.92;;;0.82;;
1446;SDS011;717;51.522;7.266;2022-11-04T11:45:23;3.33;;;0.88;;
1446;SDS011;717;51.522;7.266;2022-11-04T11:47:53;4.75;;;1.35;;
1446;SDS011;717;51.522;7.266;2022-11-04T11:52:46;3.88;;;1.10;;
1446;SDS011;717;51.522;7.266;2022-11-04T11:55:14;5.72;;;1.10;;
1446;SDS011;717;51.522;7.266;2022-11-04T11:57:46;4.30;;;1.10;;
1446;SDS011;717;51.522;7.266;2022-11-04T12:00:21;4.53;;;0.93;;
1446;SDS011;717;51.522;7.266;2022-11-04T12:02:58;4.88;;;1.20;;
1446;SDS011;717;51.522;7.266;2022-11-04T12:05:36;3.92;;;1.85;;
1446;SDS011;717;51.522;7.266;2022-11-04T12:08:17;7.68;;;1.23;;
1446;SDS011;717;51.522;7.266;2022-11-04T12:11:12;3.97;;;1.10;;
1446;SDS011;717;51.522;7.266;2022-11-04T12:16:27;4.25;;;1.45;;
1446;SDS011;717;51.522;7.266;2022-11-04T12:21:39;5.25;;;1.50;;
1446;SDS011;717;51.522;7.266;2022-11-04T12:24:15;4.93;;;1.48;;
1446;SDS011;717;51.522;7.266;2022-11-04T12:29:30;5.15;;;1.85;;
1446;SDS011;717;51.522;7.266;2022-11-04T12:32:14;4.00;;;1.55;;
1446;SDS011;717;51.522;7.266;2022-11-04T12:34:49;2.83;;;1.52;;
1446;SDS011;717;51.522;7.266;2022-11-04T12:37:19;4.80;;;2.03;;
1446;SDS011;717;51.522;7.266;2022-11-04T12:42:26;4.57;;;2.00;;
1446;SDS011;717;51.522;7.266;2022-11-04T12:45:06;4.32;;;1.75;;
1446;SDS011;717;51.522;7.266;2022-11-04T12:47:53;5.75;;;1.98;;
1446;SDS011;717;51.522;7.266;2022-11-04T12:55:54;4.25;;;1.50;;
1446;SDS011;717;51.522;7.266;2022-11-04T12:58:34;6.00;;;1.85;;
1446;SDS011;717;51.522;7.266;2022-11-04T13:01:10;4.80;;;1.15;;
1446;SDS011;717;51.522;7.266;2022-11-04T13:03:45;3.83;;;1.27;;
1446;SDS011;717;51.522;7.266;2022-11-04T13:06:17;7.03;;;2.00;;
1446;SDS011;717;51.522;7.266;2022-11-04T13:08:50;8.73;;;2.38;;
1446;SDS011;717;51.522;7.266;2022-11-04T13:14:08;7.30;;;1.70;;
1446;SDS011;717;51.522;7.266;2022-11-04T13:16:41;5.53;;;2.58;;
1446;SDS011;717;51.522;7.266;2022-11-04T13:21:59;9.13;;;2.92;;
1446;SDS011;717;51.522;7.266;2022-11-04T13:24:32;5.00;;;2.80;;
1446;SDS011;717;51.522;7.266;2022-11-04T13:27:01;5.63;;;3.45;;
1446;SDS011;717;51.522;7.266;2022-11-04T13:29:32;6.70;;;3.65;;
1446;SDS011;717;51.522;7.266;2022-11-04T13:32:02;7.40;;;2.92;;
1446;SDS011;717;51.522;7.266;2022-11-04T13:34:37;7.45;;;3.58;;
1446;SDS011;717;51.522;7.266;2022-11-04T13:39:35;7.13;;;2.63;;
1446;SDS011;717;51.522;7.266;2022-11-04T13:42:13;5.95;;;2.65;;
1446;SDS011;717;51.522;7.266;2022-11-04T13:45:02;5.50;;;2.80;;
1446;SDS011;717;51.522;7.266;2022-11-04T13:47:50;7.15;;;3.20;;
1446;SDS011;717;51.522;7.266;2022-11-04T13:50:27;5.80;;;2.70;;
1446;SDS011;717;51.522;7.266;2022-11-04T13:52:58;5.85;;;2.97;;
1446;SDS011;717;51.522;7.266;2022-11-04T13:55:25;4.13;;;2.95;;
1446;SDS011;717;51.522;7.266;2022-11-04T13:57:52;5.35;;;2.75;;
1446;SDS011;717;51.522;7.266;2022-11-04T14:00:22;5.65;;;2.90;;
1446;SDS011;717;51.522;7.266;2022-11-04T14:02:53;8.73;;;3.30;;
1446;SDS011;717;51.522;7.266;2022-11-04T14:08:09;6.28;;;3.42;;
1446;SDS011;717;51.522;7.266;2022-11-04T14:10:41;6.45;;;3.38;;
1446;SDS011;717;51.522;7.266;2022-11-04T14:16:01;6.78;;;2.67;;
1446;SDS011;717;51.522;7.266;2022-11-04T14:25:59;8.07;;;2.97;;
1446;SDS011;717;51.522;7.266;2022-11-04T14:28:28;8.85;;;3.67;;
1446;SDS011;717;51.522;7.266;2022-11-04T14:33:27;6.28;;;2.70;;
1446;SDS011;717;51.522;7.266;2022-11-04T14:36:12;5.85;;;2.88;;
1446;SDS011;717;51.522;7.266;2022-11-04T14:41:31;8.23;;;2.60;;
1446;SDS011;717;51.522;7.266;2022-11-04T14:44:31;5.35;;;2.47;;
1446;SDS011;717;51.522;7.266;2022-11-04T14:47:01;7.82;;;2.58;;
1446;SDS011;717;51.522;7.266;2022-11-04T14:49:59;4.78;;;2.85;;
1446;SDS011;717;51.522;7.266;2022-11-04T14:52:44;5.28;;;2.90;;
1446;SDS011;717;51.522;7.266;2022-11-04T14:55:14;6.22;;;3.05;;
1446;SDS011;717;51.522;7.266;2022-11-04T15:00:28;7.85;;;3.45;;
1446;SDS011;717;51.522;7.266;2022-11-04T15:05:35;6.85;;;3.10;;
1446;SDS011;717;51.522;7.266;2022-11-04T15:10:56;6.30;;;3.28;;
1446;SDS011;717;51.522;7.266;2022-11-04T15:13:24;6.22;;;3.65;;
1446;SDS011;717;51.522;7.266;2022-11-04T15:15:51;6.35;;;3.60;;
1446;SDS011;717;51.522;7.266;2022-11-04T15:18:20;8.18;;;4.20;;
1446;SDS011;717;51.522;7.266;2022-11-04T15:20:53;7.65;;;4.55;;
1446;SDS011;717;51.522;7.266;2022-11-04T15:23:25;8.80;;;4.40;;
1446;SDS011;717;51.522;7.266;2022-11-04T15:25:53;5.95;;;4.10;;
1446;SDS011;717;51.522;7.266;2022-11-04T15:30:57;7.13;;;3.85;;
1446;SDS011;717;51.522;7.266;2022-11-04T15:33:29;6.95;;;3.95;;
1446;SDS011;717;51.522;7.266;2022-11-04T15:38:43;8.68;;;4.47;;
1446;SDS011;717;51.522;7.266;2022-11-04T15:41:12;7.30;;;4.22;;
1446;SDS011;717;51.522;7.266;2022-11-04T15:43:58;9.45;;;4.07;;
1446;SDS011;717;51.522;7.266;2022-11-04T15:49:00;7.80;;;4.50;;
1446;SDS011;717;51.522;7.266;2022-11-04T15:51:30;9.43;;;4.25;;
1446;SDS011;717;51.522;7.266;2022-11-04T15:54:03;8.05;;;4.97;;
1446;SDS011;717;51.522;7.266;2022-11-04T15:56:32;8.52;;;4.25;;
1446;SDS011;717;51.522;7.266;2022-11-04T15:59:06;7.57;;;4.60;;
1446;SDS011;717;51.522;7.266;2022-11-04T16:01:41;8.77;;;5.00;;
1446;SDS011;717;51.522;7.266;2022-11-04T16:11:27;8.60;;;4.85;;
1446;SDS011;717;51.522;7.266;2022-11-04T16:13:57;7.38;;;5.10;;
1446;SDS011;717;51.522;7.266;2022-11-04T16:16:44;8.02;;;4.55;;
1446;SDS011;717;51.522;7.266;2022-11-04T16:19:15;10.43;;;4.95;;
1446;SDS011;717;51.522;7.266;2022-11-04T16:21:44;8.13;;;4.70;;
1446;SDS011;717;51.522;7.266;2022-11-04T16:24:15;7.40;;;5.28;;
1446;SDS011;717;51.522;7.266;2022-11-04T16:26:47;9.50;;;4.82;;
1446;SDS011;717;51.522;7.266;2022-11-04T16:29:16;7.15;;;4.63;;
1446;SDS011;717;51.522;7.266;2022-11-04T16:31:45;9.63;;;5.40;;
1446;SDS011;717;51.522;7.266;2022-11-04T16:34:31;7.28;;;4.75;;
1446;SDS011;717;51.522;7.266;2022-11-04T16:36:58;7.57;;;4.35;;
1446;SDS011;717;51.522;7.266;2022-11-04T16:39:25;6.82;;;4.78;;
1446;SDS011;717;51.522;7.266;2022-11-04T16:41:53;6.22;;;4.45;;
1446;SDS011;717;51.522;7.266;2022-11-04T16:44:21;8.52;;;4.45;;
1446;SDS011;717;51.522;7.266;2022-11-04T16:46:50;8.48;;;4.32;;
1446;SDS011;717;51.522;7.266;2022-11-04T16:49:17;7.13;;;3.92;;
1446;SDS011;717;51.522;7.266;2022-11-04T16:51:46;5.30;;;3.67;;
1446;SDS011;717;51.522;7.266;2022-11-04T16:54:15;6.55;;;3.25;;
1446;SDS011;717;51.522;7.266;2022-11-04T16:56:42;5.40;;;2.95;;
1446;SDS011;717;51.522;7.266;2022-11-04T16:59:11;5.82;;;3.20;;
1446;SDS011;717;51.522;7.266;2022-11-04T17:01:38;7.50;;;3.42;;
1446;SDS011;717;51.522;7.266;2022-11-04T17:06:33;5.72;;;2.83;;
1446;SDS011;717;51.522;7.266;2022-11-04T17:09:01;5.50;;;2.75;;
1446;SDS011;717;51.522;7.266;2022-11-04T17:11:28;6.32;;;2.75;;
1446;SDS011;717;51.522;7.266;2022-11-04T17:14:10;6.15;;;2.90;;
1446;SDS011;717;51.522;7.266;2022-11-04T17:16:37;8.57;;;2.97;;
1446;SDS011;717;51.522;7.266;2022-11-04T17:19:04;5.03;;;2.83;;
1446;SDS011;717;51.522;7.266;2022-11-04T17:21:31;6.75;;;2.92;;
1446;SDS011;717;51.522;7.266;2022-11-04T17:23:57;8.23;;;3.03;;
1446;SDS011;717;51.522;7.266;2022-11-04T17:26:24;6.72;;;3.45;;
1446;SDS011;717;51.522;7.266;2022-11-04T17:29:06;7.03;;;3.60;;
1446;SDS011;717;51.522;7.266;2022-11-04T17:31:35;7.47;;;3.72;;
1446;SDS011;717;51.522;7.266;2022-11-04T17:34:02;8.48;;;4.05;;
1446;SDS011;717;51.522;7.266;2022-11-04T17:36:29;7.75;;;3.78;;
1446;SDS011;717;51.522;7.266;2022-11-04T17:38:56;6.68;;;4.00;;
1446;SDS011;717;51.522;7.266;2022-11-04T17:41:23;9.35;;;4.88;;
1446;SDS011;717;51.522;7.266;2022-11-04T17:44:07;9.02;;;6.07;;
1446;SDS011;717;51.522;7.266;2022-11-04T17:46:35;12.00;;;5.80;;
1446;SDS011;717;51.522;7.266;2022-11-04T17:49:09;8.38;;;5.53;;
1446;SDS011;717;51.522;7.266;2022-11-04T17:51:38;10.63;;;5.50;;
1446;SDS011;717;51.522;7.266;2022-11-04T17:54:06;7.95;;;5.20;;
1446;SDS011;717;51.522;7.266;2022-11-04T17:56:33;8.20;;;4.95;;